createdAt,value
2023-04-20T00:02:10.137Z,3.10
2023-04-20T00:05:13.207Z,5.03
2023-04-20T00:08:16.485Z,5.20
2023-04-20T00:11:18.954Z,3.00
2023-04-20T00:14:21.584Z,4.63
2023-04-20T00:17:24.338Z,4.93
2023-04-20T00:20:27.038Z,5.15
2023-04-20T00:23:29.324Z,3.30
2023-04-20T00:26:31.538Z,4.00
2023-04-20T00:29:34.440Z,3.03
2023-04-20T00:32:41.310Z,6.75
2023-04-20T00:35:44.443Z,3.42
2023-04-20T00:38:47.473Z,2.80
2023-04-20T00:41:50.587Z,3.13
2023-04-20T00:44:54.357Z,3.20
2023-04-20T00:47:57.794Z,3.97
2023-04-20T00:51:00.113Z,3.20
2023-04-20T00:54:03.470Z,5.55
2023-04-20T00:57:05.701Z,3.75
2023-04-20T01:00:10.721Z,3.90
2023-04-20T01:03:14.194Z,4.32
2023-04-20T01:06:16.472Z,2.13
2023-04-20T01:09:19.036Z,3.20
2023-04-20T01:12:23.738Z,2.75
2023-04-20T01:15:27.229Z,4.78
2023-04-20T01:18:30.298Z,3.38
2023-04-20T01:21:32.556Z,2.53
2023-04-20T01:24:35.594Z,3.88
2023-04-20T01:27:38.483Z,3.28
2023-04-20T01:30:41.657Z,5.68
2023-04-20T01:33:44.663Z,3.03
2023-04-20T01:36:47.355Z,4.22
2023-04-20T01:39:49.371Z,2.70
2023-04-20T01:42:52.182Z,4.65
2023-04-20T01:45:54.833Z,3.58
2023-04-20T01:48:57.828Z,4.15
2023-04-20T01:52:00.940Z,3.78
2023-04-20T01:55:03.266Z,3.55
2023-04-20T01:58:05.617Z,2.75
2023-04-20T02:01:09.243Z,3.70
2023-04-20T02:04:12.441Z,9.30
2023-04-20T02:07:15.804Z,4.28
2023-04-20T02:10:19.388Z,3.72
2023-04-20T02:13:22.657Z,3.63
2023-04-20T02:16:25.544Z,3.95
2023-04-20T02:19:28.480Z,2.92
2023-04-20T02:22:33.867Z,3.17
2023-04-20T02:25:37.022Z,2.63
2023-04-20T02:28:40.700Z,3.65
2023-04-20T02:31:42.804Z,3.28
2023-04-20T02:34:45.666Z,3.10
2023-04-20T02:37:48.420Z,3.53
2023-04-20T02:40:50.697Z,4.20
2023-04-20T02:43:53.541Z,3.17
2023-04-20T02:46:56.952Z,3.90
2023-04-20T02:50:01.000Z,3.90
2023-04-20T02:53:05.931Z,4.18
2023-04-20T02:56:11.376Z,5.07
2023-04-20T02:59:25.688Z,3.60
2023-04-20T03:02:34.876Z,2.58
2023-04-20T03:05:38.046Z,3.28
2023-04-20T03:08:41.765Z,3.35
2023-04-20T03:12:06.463Z,2.08
2023-04-20T03:15:31.824Z,2.60
2023-04-20T03:18:52.652Z,5.35
2023-04-20T03:21:55.642Z,3.35
2023-04-20T03:24:59.171Z,3.53
2023-04-20T03:28:27.521Z,3.05
2023-04-20T03:31:30.228Z,2.33
2023-04-20T03:34:33.586Z,3.67
2023-04-20T03:37:36.726Z,2.90
2023-04-20T03:40:40.808Z,2.30
2023-04-20T03:43:43.492Z,3.58
2023-04-20T03:46:45.694Z,12.40
2023-04-20T03:49:48.168Z,19.85
2023-04-20T03:52:50.714Z,18.02
2023-04-20T03:55:53.377Z,27.42
2023-04-20T03:58:56.894Z,30.27
2023-04-20T04:02:01.435Z,57.97
2023-04-20T04:05:04.289Z,48.88
2023-04-20T04:08:06.755Z,43.13
2023-04-20T04:11:09.389Z,41.10
2023-04-20T04:14:11.847Z,47.92
2023-04-20T04:17:15.583Z,42.95
2023-04-20T04:20:18.044Z,38.95
2023-04-20T04:23:20.753Z,37.83
2023-04-20T04:26:35.379Z,35.17
2023-04-20T04:29:39.390Z,27.30
2023-04-20T04:32:44.724Z,30.88
2023-04-20T04:35:47.321Z,31.70
2023-04-20T04:38:50.909Z,25.80
2023-04-20T04:41:53.720Z,31.17
2023-04-20T04:45:04.920Z,28.23
2023-04-20T04:48:11.004Z,27.30
2023-04-20T04:51:13.402Z,25.65
2023-04-20T04:54:15.737Z,23.25
2023-04-20T04:57:18.843Z,28.95
2023-04-20T05:00:21.695Z,22.38
2023-04-20T05:03:24.684Z,24.75
2023-04-20T05:06:27.519Z,22.13
2023-04-20T05:09:29.738Z,22.92
2023-04-20T05:12:32.457Z,19.27
2023-04-20T05:15:34.738Z,16.58
2023-04-20T05:18:37.918Z,19.90
2023-04-20T05:21:41.422Z,17.58
2023-04-20T05:24:44.275Z,16.88
2023-04-20T05:27:47.152Z,14.15
2023-04-20T05:30:50.000Z,16.50
2023-04-20T05:33:52.681Z,13.70
2023-04-20T05:36:54.745Z,12.25
2023-04-20T05:39:57.593Z,11.65
2023-04-20T05:43:00.427Z,13.25
2023-04-20T05:46:03.652Z,12.57
2023-04-20T05:49:07.131Z,11.07
2023-04-20T05:52:09.554Z,9.45
2023-04-20T05:55:12.417Z,10.35
2023-04-20T05:58:15.566Z,10.15
2023-04-20T06:01:19.179Z,11.38
2023-04-20T06:04:22.590Z,11.15
2023-04-20T06:07:26.150Z,9.15
2023-04-20T06:10:29.227Z,9.20
2023-04-20T06:13:31.643Z,8.07
2023-04-20T06:16:34.405Z,7.22
2023-04-20T06:19:36.668Z,7.40
2023-04-20T06:22:39.298Z,8.48
2023-04-20T06:25:42.058Z,8.90
2023-04-20T06:28:45.001Z,6.05
2023-04-20T06:31:47.553Z,6.57
2023-04-20T06:34:50.255Z,7.15
2023-04-20T06:37:52.550Z,7.05
2023-04-20T06:40:55.221Z,7.18
2023-04-20T06:43:59.094Z,6.00
2023-04-20T06:47:02.164Z,7.35
2023-04-20T06:50:05.854Z,8.25
2023-04-20T06:53:08.869Z,6.15
2023-04-20T06:56:11.667Z,6.53
2023-04-20T06:59:14.491Z,5.97
2023-04-20T07:02:17.472Z,6.63
2023-04-20T07:05:20.134Z,6.40
2023-04-20T07:08:23.253Z,6.20
2023-04-20T07:11:27.107Z,6.28
2023-04-20T07:14:30.262Z,5.20
2023-04-20T07:17:33.842Z,4.88
2023-04-20T07:20:37.454Z,4.95
2023-04-20T07:23:41.162Z,5.38
2023-04-20T07:26:44.957Z,6.10
2023-04-20T07:29:47.648Z,5.18
2023-04-20T07:32:50.449Z,4.93
2023-04-20T07:35:53.226Z,5.55
2023-04-20T07:38:55.987Z,5.22
2023-04-20T07:41:58.694Z,5.30
2023-04-20T07:45:01.284Z,5.22
2023-04-20T07:48:04.340Z,4.38
2023-04-20T07:51:07.993Z,5.75
2023-04-20T07:54:11.312Z,5.03
2023-04-20T07:57:13.903Z,5.43
2023-04-20T08:00:16.701Z,4.38
2023-04-20T08:03:20.897Z,6.07
2023-04-20T08:06:23.707Z,5.10
2023-04-20T08:09:26.610Z,3.88
2023-04-20T08:12:29.734Z,3.72
2023-04-20T08:15:32.721Z,4.45
2023-04-20T08:18:35.512Z,3.88
2023-04-20T08:21:38.497Z,5.47
2023-04-20T08:24:41.656Z,4.88
2023-04-20T08:27:45.051Z,4.47
2023-04-20T08:30:48.059Z,4.15
2023-04-20T08:33:51.472Z,3.45
2023-04-20T08:36:53.731Z,3.60
2023-04-20T08:39:56.772Z,4.78
2023-04-20T08:42:59.267Z,5.03
2023-04-20T08:46:01.999Z,4.38
2023-04-20T08:49:07.216Z,4.32
2023-04-20T08:52:10.209Z,3.38
2023-04-20T08:55:14.109Z,4.95
2023-04-20T08:58:18.047Z,3.53
2023-04-20T09:01:28.717Z,469.38
2023-04-20T09:04:37.101Z,277.25
2023-04-20T09:07:39.941Z,208.18
2023-04-20T09:10:42.709Z,173.18
2023-04-20T09:13:45.502Z,156.50
2023-04-20T09:16:48.289Z,131.95
2023-04-20T09:19:51.466Z,138.73
2023-04-20T09:22:55.017Z,137.43
2023-04-20T09:25:58.552Z,111.50
2023-04-20T09:29:01.223Z,104.85
2023-04-20T09:32:04.145Z,101.28
2023-04-20T09:35:06.869Z,102.75
2023-04-20T09:38:09.279Z,86.97
2023-04-20T09:41:12.454Z,88.53
2023-04-20T09:44:16.143Z,80.13
2023-04-20T09:47:18.913Z,73.28
2023-04-20T09:50:27.098Z,70.78
2023-04-20T09:53:37.454Z,74.43
2023-04-20T09:56:39.986Z,66.55
2023-04-20T09:59:42.913Z,68.95
2023-04-20T10:02:45.776Z,61.63
2023-04-20T10:05:48.784Z,55.08
2023-04-20T10:08:52.118Z,51.85
2023-04-20T10:11:56.063Z,58.40
2023-04-20T10:14:59.487Z,49.25
2023-04-20T10:18:03.077Z,45.15
2023-04-20T10:21:06.158Z,46.47
2023-04-20T10:24:09.194Z,42.42
2023-04-20T10:27:12.012Z,40.80
2023-04-20T10:30:14.865Z,33.90
2023-04-20T10:33:17.685Z,38.03
2023-04-20T10:36:21.065Z,32.53
2023-04-20T10:39:24.341Z,30.88
2023-04-20T10:42:26.805Z,33.78
2023-04-20T10:45:29.496Z,30.48
2023-04-20T10:48:32.212Z,32.53
2023-04-20T10:51:34.737Z,27.67
2023-04-20T10:54:38.104Z,26.33
2023-04-20T10:57:41.554Z,26.02
2023-04-20T11:00:44.374Z,26.92
2023-04-20T11:03:47.111Z,23.70
2023-04-20T11:06:49.334Z,23.30
2023-04-20T11:09:52.216Z,35.92
2023-04-20T11:12:55.420Z,34.72
2023-04-20T11:15:58.892Z,34.90
2023-04-20T11:19:01.665Z,30.17
2023-04-20T11:22:03.995Z,30.25
2023-04-20T11:25:06.805Z,30.10
2023-04-20T11:28:09.565Z,29.83
2023-04-20T11:31:12.810Z,27.08
2023-04-20T11:34:16.340Z,30.05
2023-04-20T11:37:18.857Z,26.23
2023-04-20T11:40:21.677Z,27.92
2023-04-20T11:43:24.237Z,24.55
2023-04-20T11:46:26.949Z,23.23
2023-04-20T11:49:30.549Z,22.98
2023-04-20T11:52:33.625Z,21.80
2023-04-20T11:55:37.070Z,20.63
2023-04-20T11:58:40.071Z,24.02
2023-04-20T12:01:42.856Z,20.98
2023-04-20T12:04:46.174Z,16.13
2023-04-20T12:07:49.206Z,19.42
2023-04-20T12:10:51.838Z,19.98
2023-04-20T12:13:54.658Z,18.88
2023-04-20T12:16:58.573Z,17.02
2023-04-20T12:20:01.421Z,18.23
2023-04-20T12:23:03.810Z,15.25
2023-04-20T12:26:05.967Z,12.57
2023-04-20T12:29:08.916Z,16.08
2023-04-20T12:32:12.400Z,19.50
2023-04-20T12:35:15.585Z,16.48
2023-04-20T12:38:18.755Z,14.40
2023-04-20T12:41:21.048Z,12.05
2023-04-20T12:44:23.063Z,14.73
2023-04-20T12:47:25.887Z,11.98
2023-04-20T12:50:28.248Z,14.45
2023-04-20T12:53:30.897Z,12.73
2023-04-20T12:56:34.187Z,12.52
2023-04-20T12:59:36.748Z,11.18
2023-04-20T13:02:39.568Z,9.73
2023-04-20T13:05:42.191Z,10.70
2023-04-20T13:08:45.591Z,9.85
2023-04-20T13:11:48.571Z,11.32
2023-04-20T13:14:50.801Z,9.52
2023-04-20T13:17:53.519Z,7.28
2023-04-20T13:20:56.600Z,9.75
2023-04-20T13:23:59.986Z,9.60
2023-04-20T13:27:03.514Z,9.88
2023-04-20T13:30:05.620Z,8.70
2023-04-20T13:33:08.816Z,8.70
2023-04-20T13:36:11.986Z,9.20
2023-04-20T13:39:15.417Z,7.80
2023-04-20T13:42:18.058Z,6.95
2023-04-20T13:45:20.613Z,8.50
2023-04-20T13:48:22.956Z,6.90
2023-04-20T13:51:26.072Z,7.72
2023-04-20T13:54:29.514Z,6.50
2023-04-20T13:57:32.222Z,6.18
2023-04-20T14:00:35.131Z,7.53
2023-04-20T14:03:38.361Z,5.32
2023-04-20T14:06:41.841Z,5.95
2023-04-20T14:09:45.190Z,4.78
2023-04-20T14:12:47.560Z,4.88
2023-04-20T14:15:50.308Z,4.55
2023-04-20T14:18:52.370Z,6.40
2023-04-20T14:21:55.188Z,6.55
2023-04-20T14:24:57.875Z,5.60
2023-04-20T14:28:01.465Z,5.72
2023-04-20T14:31:04.957Z,6.00
2023-04-20T14:34:07.762Z,4.35
2023-04-20T14:37:10.934Z,4.38
2023-04-20T14:40:14.487Z,5.63
2023-04-20T14:43:17.112Z,4.68
2023-04-20T14:46:19.893Z,5.97
2023-04-20T14:49:22.044Z,4.15
2023-04-20T14:52:24.659Z,5.13
2023-04-20T14:55:27.815Z,3.85
2023-04-20T14:58:30.792Z,3.88
2023-04-20T15:01:34.354Z,5.07
2023-04-20T15:04:37.794Z,5.78
2023-04-20T15:07:41.817Z,5.22
2023-04-20T15:10:45.647Z,4.97
2023-04-20T15:13:48.999Z,5.22
2023-04-20T15:16:52.063Z,6.90
2023-04-20T15:19:55.265Z,4.03
2023-04-20T15:22:57.847Z,3.75
2023-04-20T15:26:00.589Z,4.07
2023-04-20T15:29:03.128Z,4.05
2023-04-20T15:32:05.436Z,4.60
2023-04-20T15:35:07.768Z,4.30
2023-04-20T15:38:10.075Z,7.53
2023-04-20T15:41:12.983Z,5.82
2023-04-20T15:44:16.433Z,4.72
2023-04-20T15:47:19.800Z,4.93
2023-04-20T15:50:23.377Z,7.18
2023-04-20T15:53:25.812Z,5.43
2023-04-20T15:56:29.060Z,4.82
2023-04-20T15:59:31.884Z,5.45
2023-04-20T16:02:34.453Z,5.13
2023-04-20T16:05:38.941Z,5.68
2023-04-20T16:08:41.948Z,4.90
2023-04-20T16:11:44.612Z,4.57
2023-04-20T16:14:47.453Z,4.38
2023-04-20T16:17:51.005Z,6.53
2023-04-20T16:20:53.762Z,6.20
2023-04-20T16:23:57.756Z,7.57
2023-04-20T16:27:01.674Z,4.18
2023-04-20T16:30:04.753Z,5.97
2023-04-20T16:33:08.035Z,5.38
2023-04-20T16:36:11.337Z,5.65
2023-04-20T16:39:14.591Z,4.18
2023-04-20T16:42:18.220Z,6.07
2023-04-20T16:45:21.136Z,4.13
2023-04-20T16:48:24.141Z,4.82
2023-04-20T16:51:26.878Z,3.72
2023-04-20T16:54:29.591Z,3.85
2023-04-20T16:57:32.054Z,5.15
2023-04-20T17:00:35.153Z,4.65
2023-04-20T17:03:38.406Z,4.40
2023-04-20T17:06:42.446Z,5.00
2023-04-20T17:09:45.400Z,4.32
2023-04-20T17:12:48.403Z,4.20
2023-04-20T17:15:51.154Z,3.53
2023-04-20T17:18:54.604Z,4.68
2023-04-20T17:21:56.825Z,3.65
2023-04-20T17:24:59.437Z,4.53
2023-04-20T17:28:01.895Z,4.03
2023-04-20T17:31:04.428Z,4.18
2023-04-20T17:34:07.093Z,3.85
2023-04-20T17:37:09.975Z,3.85
2023-04-20T17:40:13.643Z,4.88
2023-04-20T17:43:16.353Z,4.13
2023-04-20T17:46:19.838Z,3.35
2023-04-20T17:49:22.086Z,3.30
2023-04-20T17:52:24.538Z,4.20
2023-04-20T17:55:28.042Z,3.78
2023-04-20T17:58:30.977Z,4.78
2023-04-20T18:01:34.560Z,3.97
2023-04-20T18:04:37.815Z,6.07
2023-04-20T18:07:40.662Z,2.90
2023-04-20T18:10:43.367Z,4.32
2023-04-20T18:13:46.513Z,3.08
2023-04-20T18:16:50.590Z,3.35
2023-04-20T18:19:53.680Z,4.80
2023-04-20T18:22:56.233Z,4.47
2023-04-20T18:25:58.795Z,3.17
2023-04-20T18:29:01.312Z,3.42
2023-04-20T18:32:04.671Z,3.53
2023-04-20T18:35:08.257Z,3.88
2023-04-20T18:38:11.204Z,3.63
2023-04-20T18:41:14.421Z,4.50
2023-04-20T18:44:17.786Z,3.75
2023-04-20T18:47:20.649Z,5.05
2023-04-20T18:50:23.710Z,6.47
2023-04-20T18:53:27.022Z,3.42
2023-04-20T18:56:30.602Z,4.85
2023-04-20T18:59:32.886Z,4.32
2023-04-20T19:02:35.294Z,4.32
2023-04-20T19:05:38.379Z,3.53
2023-04-20T19:08:41.499Z,3.45
2023-04-20T19:11:44.273Z,3.58
2023-04-20T19:14:49.119Z,4.55
2023-04-20T19:17:52.119Z,4.78
2023-04-20T19:20:55.060Z,6.80
2023-04-20T19:23:58.081Z,3.78
2023-04-20T19:27:00.313Z,5.65
2023-04-20T19:30:03.201Z,4.93
2023-04-20T19:33:06.821Z,3.50
2023-04-20T19:36:09.632Z,5.03
2023-04-20T19:39:12.993Z,6.03
2023-04-20T19:42:16.075Z,5.55
2023-04-20T19:45:18.771Z,3.90
2023-04-20T19:48:21.838Z,3.97
2023-04-20T19:51:25.483Z,4.20
2023-04-20T19:54:28.864Z,3.20
2023-04-20T19:57:31.477Z,3.70
2023-04-20T20:00:34.544Z,4.65
2023-04-20T20:03:37.498Z,4.45
2023-04-20T20:06:40.800Z,3.53
2023-04-20T20:09:44.359Z,4.63
2023-04-20T20:12:47.558Z,4.90
2023-04-20T20:15:51.560Z,2.95
2023-04-20T20:18:54.075Z,3.03
2023-04-20T20:21:56.073Z,3.55
2023-04-20T20:24:58.921Z,3.60
2023-04-20T20:28:02.107Z,4.55
2023-04-20T20:31:04.702Z,3.30
2023-04-20T20:34:09.171Z,3.78
2023-04-20T20:37:12.793Z,3.92
2023-04-20T20:40:15.690Z,3.60
2023-04-20T20:43:18.111Z,4.05
2023-04-20T20:46:20.703Z,3.13
2023-04-20T20:49:23.552Z,3.40
2023-04-20T20:52:25.875Z,3.50
2023-04-20T20:55:28.165Z,3.85
2023-04-20T20:58:31.030Z,3.50
2023-04-20T21:01:34.017Z,3.28
2023-04-20T21:04:36.758Z,3.22
2023-04-20T21:07:39.413Z,4.97
2023-04-20T21:10:41.764Z,3.67
2023-04-20T21:13:45.533Z,3.72
2023-04-20T21:16:48.544Z,3.63
2023-04-20T21:19:51.180Z,5.80
2023-04-20T21:22:53.898Z,4.05
2023-04-20T21:25:56.348Z,3.45
2023-04-20T21:28:58.690Z,3.72
2023-04-20T21:32:00.957Z,4.22
2023-04-20T21:35:04.033Z,3.65
2023-04-20T21:38:07.043Z,4.45
2023-04-20T21:41:09.860Z,3.60
2023-04-20T21:44:13.105Z,4.70
2023-04-20T21:47:15.807Z,3.50
2023-04-20T21:50:19.158Z,5.05
2023-04-20T21:53:21.684Z,4.38
2023-04-20T21:56:24.380Z,4.30
2023-04-20T21:59:26.841Z,4.28
2023-04-20T22:02:29.852Z,5.20
2023-04-20T22:05:32.646Z,5.28
2023-04-20T22:08:35.371Z,4.63
2023-04-20T22:11:38.414Z,5.22
2023-04-20T22:14:41.164Z,4.65
2023-04-20T22:17:43.846Z,4.60
2023-04-20T22:20:46.805Z,4.60
2023-04-20T22:23:49.980Z,4.78
2023-04-20T22:26:52.937Z,5.20
2023-04-20T22:29:55.977Z,4.30
2023-04-20T22:32:59.363Z,4.93
2023-04-20T22:36:02.371Z,4.88
2023-04-20T22:39:05.110Z,6.60
2023-04-20T22:42:08.882Z,6.97
2023-04-20T22:45:11.696Z,4.88
2023-04-20T22:48:14.577Z,6.00
2023-04-20T22:51:17.385Z,6.05
2023-04-20T22:54:20.635Z,5.35
2023-04-20T22:57:23.917Z,5.53
2023-04-20T23:00:27.483Z,4.97
2023-04-20T23:03:29.814Z,5.88
2023-04-20T23:06:32.977Z,7.38
2023-04-20T23:09:35.925Z,6.68
2023-04-20T23:12:38.926Z,6.35
2023-04-20T23:15:41.553Z,6.43
2023-04-20T23:18:44.538Z,6.57
2023-04-20T23:21:47.685Z,5.72
2023-04-20T23:24:50.717Z,5.35
2023-04-20T23:27:53.444Z,7.07
2023-04-20T23:30:55.572Z,7.85
2023-04-20T23:33:58.310Z,7.25
2023-04-20T23:37:01.462Z,8.43
2023-04-20T23:40:04.534Z,8.10
2023-04-20T23:43:07.184Z,6.75
2023-04-20T23:46:11.022Z,6.35
2023-04-20T23:49:14.204Z,6.13
2023-04-20T23:52:17.105Z,5.75
2023-04-20T23:55:20.714Z,6.65
2023-04-20T23:58:23.598Z,8.15
